LOWS/SZG METAR and TAF weather

Enter ICAO airport designator
Station Type Date Time Source
LOWS METAR 2019/02/16 17:20 UTC NOAA

LOWS 161720Z 16005KT CAVOK 05/M02 Q1029 NOSIG


Station Type Date Time Source
LOWS Decoded METAR 2019/02/16 17:20 UTC NOAA

Salzburg-Flughafen, Austria (LOWS) 47-48N 013-00E 450M
Feb 16, 2019 - 12:20 PM EST / 2019.02.16 1720 UTC
Wind: from the SSE (160 degrees) at 6 MPH (5 KT):0
Visibility: greater than 7 mile(s):0
Temperature: 41 F (5 C)
Dew Point: 28 F (-2 C)
Relative Humidity: 60%
Pressure (altimeter): 30.39 in. Hg (1029 hPa)
ob: LOWS 161720Z 16005KT CAVOK 05/M02 Q1029 NOSIG
cycle: 17

Station Type Date Time Source
LOWS TAF 2019/02/16 18:21 UTC NOAA

TAF LOWS 161715Z 1618/1718 15005KT CAVOK TX13/1714Z TNM01/1705Z
TEMPO 1712/1716 34005KT


Example: see airport list